Flight Track Log - Related Links

Times and Time Zones

All times are in EDT time to prevent confusion due to time zone crossing. See the SWA4652 flight status page for this flight to view local times or setup timezone preferences in your user account.

Time Position Orientation Groundspeed Altitude Reporting Facility
EDT Latitude Longitude Course Direction KTS MPH feet Rate Location/Type
Sat 01:23:49 PM 33.6667 -117.8833 191° South 140 161 1,200  Level Southern California TRACON
Sat 01:24:55 PM 33.6244 -117.8933 191° South 153 176 2,800 1,781 Climbing Los Angeles Center
Sat 01:25:57 PM 33.5583 -117.9103 192° South 190 219 5,000 2,177 Climbing Los Angeles Center
Sat 01:26:59 PM 33.5078 -117.9767 228° Southwest 250 288 7,300 2,419 Climbing Los Angeles Center
Sat 01:28:01 PM 33.4819 -118.0658 251° West 273 314 10,000 1,645 Climbing Los Angeles Center
Sat 01:29:03 PM 33.4508 -118.1683 250° West 320 368 10,700 1,645 Climbing Los Angeles Center
Sat 01:30:05 PM 33.4142 -118.2875 250° West 370 426 13,400 2,710 Climbing Los Angeles Center
Sat 01:31:07 PM 33.3914 -118.4167 258° West 395 455 16,300 2,710 Climbing Los Angeles Center
Sat 01:32:09 PM 33.4633 -118.5233 309° West 412 474 19,000 2,400 Climbing Los Angeles Center
Sat 01:33:12 PM 33.5486 -118.6250 315° West 423 487 21,300 2,400 Climbing Los Angeles Center
Sat 01:34:14 PM 33.6572 -118.7528 316° Northwest 453 521 24,000 1,306 Climbing Los Angeles Center
Sat 01:35:16 PM 33.7467 -118.8581 316° Northwest 448 516 24,000 339 Level Los Angeles Center
Sat 01:36:18 PM 33.8367 -118.9653 315° West 450 518 24,700 1,984 Climbing Los Angeles Center
Sat 01:37:20 PM 33.9250 -119.0708 315° West 450 518 28,100 2,855 Climbing Los Angeles Center
Sat 01:38:22 PM 34.0094 -119.1703 316° Northwest 431 496 30,600 2,516 Climbing Los Angeles Center
Sat 01:39:24 PM 34.1044 -119.2831 316° Northwest 423 487 33,300 2,468 Climbing Los Angeles Center
Sat 01:40:26 PM 34.1889 -119.3858 315° West 412 474 35,700 1,306 Climbing Los Angeles Center
Sat 01:41:28 PM 34.2678 -119.4806 315° West 406 467 36,000 145 Climbing Los Angeles Center
Sat 01:42:30 PM 34.3469 -119.5753 315° West 403 464 36,000  Level Los Angeles Center
Sat 01:43:33 PM 34.4250 -119.6714 315° West 403 464 36,000  Level Los Angeles Center
Sat 01:44:35 PM 34.5039 -119.7669 315° West 402 463 36,000  Level Los Angeles Center
Sat 01:45:37 PM 34.6114 -119.8569 325° Northwest 408 470 36,000  Level Los Angeles Center
Sat 01:46:39 PM 34.7053 -119.9325 327° Northwest 409 471 36,000  Level Los Angeles Center
Sat 01:47:41 PM 34.8003 -120.0106 326° Northwest 409 471 36,000  Level Los Angeles Center
Sat 01:48:43 PM 34.8953 -120.0900 326° Northwest 411 473 36,000  Level Los Angeles Center
Sat 01:49:45 PM 34.9925 -120.1714 326° Northwest 413 475 36,000  Level Los Angeles Center
Sat 01:50:47 PM 35.0894 -120.2519 326° Northwest 419 482 36,000  Level Los Angeles Center
Sat 01:51:49 PM 35.2056 -120.3492 326° Northwest 423 487 36,000  Level Los Angeles Center
Sat 01:52:52 PM 35.3019 -120.4319 325° Northwest 424 488 36,000  Level Los Angeles Center
Sat 01:53:54 PM 35.3994 -120.5156 325° Northwest 455 524 36,000  Level Los Angeles Center
Sat 01:54:56 PM 35.4964 -120.5975 325° Northwest 435 501 36,000  Level Los Angeles Center
Sat 01:55:58 PM 35.5944 -120.6783 326° Northwest 428 493 36,000  Level Los Angeles Center
Sat 01:57:00 PM 35.7003 -120.7694 325° Northwest 428 493 36,000 -48 Level Los Angeles Center
Sat 01:58:02 PM 35.7983 -120.8525 326° Northwest 428 493 35,900 -532 Descending Los Angeles Center
Sat 01:59:04 PM 35.8947 -120.9356 325° Northwest 426 490 34,900 -1,940 Descending Los Angeles Center
Sat 02:00:15 PM 36.0119 -121.0367 325° Northwest 427 491 31,600 -3,158 Descending Oakland Center
Sat 02:01:17 PM 36.1292 -121.1361 326° Northwest 427 491 27,900 -3,024 Descending Oakland Center
Sat 02:02:18 PM 36.2233 -121.2192 325° Northwest 419 482 25,400 -2,488 Descending Oakland Center
Sat 02:03:20 PM 36.3156 -121.2983 325° Northwest 408 470 22,800 -2,419 Descending Oakland Center
Sat 02:04:22 PM 36.4031 -121.3739 325° Northwest 387 445 20,400 -2,634 Descending Oakland Center
Sat 02:05:23 PM 36.4933 -121.4350 331° Northwest 375 432 17,400 -2,829 Descending Oakland Center
Sat 02:06:25 PM 36.6000 -121.4583 350° North 384 442 14,600 -2,565 Descending Oakland Center
Sat 02:07:27 PM 36.7008 -121.4842 348° North 375 432 12,100 -2,049 Descending Oakland Center
Sat 02:08:28 PM 36.8128 -121.5108 349° North 339 390 10,400 -1,171 Descending Oakland Center
Sat 02:09:30 PM 36.8872 -121.5325 347° North 300 345 9,700 -634 Descending Oakland Center
Sat 02:10:31 PM 36.9575 -121.5486 350° North 268 308 9,100 -878 Descending Oakland Center
Sat 02:11:33 PM 37.0203 -121.5653 348° North 242 278 7,900 -1,073 Descending Oakland Center
Sat 02:12:34 PM 37.0750 -121.6019 332° Northwest 234 269 6,900 -1,073 Descending Oakland Center
Sat 02:13:36 PM 37.1172 -121.6597 313° West 227 261 5,700 -1,113 Descending Oakland Center
Sat 02:14:38 PM 37.1725 -121.7250 317° Northwest 227 261 4,600 -1,024 Descending Oakland Center
Sat 02:15:39 PM 37.2169 -121.7736 319° Northwest 222 255 3,600 -976 Descending Oakland Center
Sat 02:16:41 PM 37.2608 -121.8214 319° Northwest 215 247 2,600 -976 Descending Oakland Center
Sat 02:17:42 PM 37.2933 -121.8569 319° Northwest 178 205 1,600 -829 Descending Oakland Center
Sat 02:18:44 PM 37.3228 -121.8878 320° Northwest 155 178 900 -683 Descending Oakland Center
Sat 02:19:45 PM 37.3506 -121.9192 318° Northwest 143 165 200 -689 Descending Oakland Center
Sat 02:21:00 PM 37.3500 -121.9167 North  Level FlightAware Approximate
Sat 02:28:00 PM 37.3627 -121.9291 North  Level Estimated

Login

Don't have an account? Register now (free) for customized features, flight alerts, and more!